sensor_id;sensor_type;location;lat;lon;timestamp;temperature;humidity
17381;DHT22;8808;52.478;13.378;2023-02-15T00:00:28;4.40;99.90
17381;DHT22;8808;52.478;13.378;2023-02-15T00:02:56;4.40;99.90
17381;DHT22;8808;52.478;13.378;2023-02-15T00:05:23;4.30;99.90
17381;DHT22;8808;52.478;13.378;2023-02-15T00:07:50;4.20;99.90
17381;DHT22;8808;52.478;13.378;2023-02-15T00:10:17;4.20;99.90
17381;DHT22;8808;52.478;13.378;2023-02-15T00:12:46;4.20;99.90
17381;DHT22;8808;52.478;13.378;2023-02-15T00:15:12;4.20;99.90
17381;DHT22;8808;52.478;13.378;2023-02-15T00:17:39;3.90;99.90
17381;DHT22;8808;52.478;13.378;2023-02-15T00:20:07;3.70;99.90
17381;DHT22;8808;52.478;13.378;2023-02-15T00:22:34;3.60;99.90
17381;DHT22;8808;52.478;13.378;2023-02-15T00:25:01;3.80;99.90
17381;DHT22;8808;52.478;13.378;2023-02-15T00:27:28;3.70;99.90
17381;DHT22;8808;52.478;13.378;2023-02-15T00:29:56;3.70;99.90
17381;DHT22;8808;52.478;13.378;2023-02-15T00:32:23;3.90;99.90
17381;DHT22;8808;52.478;13.378;2023-02-15T00:34:50;3.90;99.90
17381;DHT22;8808;52.478;13.378;2023-02-15T00:37:17;3.90;99.90
17381;DHT22;8808;52.478;13.378;2023-02-15T00:39:44;3.90;99.90
17381;DHT22;8808;52.478;13.378;2023-02-15T00:42:11;3.70;99.90
17381;DHT22;8808;52.478;13.378;2023-02-15T00:44:38;3.80;99.90
17381;DHT22;8808;52.478;13.378;2023-02-15T00:47:06;3.60;99.90
17381;DHT22;8808;52.478;13.378;2023-02-15T00:49:33;3.80;99.90
17381;DHT22;8808;52.478;13.378;2023-02-15T00:52:00;3.60;99.90
17381;DHT22;8808;52.478;13.378;2023-02-15T00:54:27;3.50;99.90
17381;DHT22;8808;52.478;13.378;2023-02-15T00:56:54;3.30;99.90
17381;DHT22;8808;52.478;13.378;2023-02-15T00:59:21;3.20;99.90
17381;DHT22;8808;52.478;13.378;2023-02-15T01:01:48;3.10;99.90
17381;DHT22;8808;52.478;13.378;2023-02-15T01:04:16;2.90;99.90
17381;DHT22;8808;52.478;13.378;2023-02-15T01:06:43;3.00;99.90
17381;DHT22;8808;52.478;13.378;2023-02-15T01:09:10;2.90;99.90
17381;DHT22;8808;52.478;13.378;2023-02-15T01:11:39;2.80;99.90
17381;DHT22;8808;52.478;13.378;2023-02-15T01:14:06;2.80;99.90
17381;DHT22;8808;52.478;13.378;2023-02-15T01:16:33;2.80;99.90
17381;DHT22;8808;52.478;13.378;2023-02-15T01:19:00;2.70;99.90
17381;DHT22;8808;52.478;13.378;2023-02-15T01:21:29;2.70;99.90
17381;DHT22;8808;52.478;13.378;2023-02-15T01:23:59;2.60;99.90
17381;DHT22;8808;52.478;13.378;2023-02-15T01:26:27;2.60;99.90
17381;DHT22;8808;52.478;13.378;2023-02-15T01:28:54;2.60;99.90
17381;DHT22;8808;52.478;13.378;2023-02-15T01:31:21;2.60;99.90
17381;DHT22;8808;52.478;13.378;2023-02-15T01:33:48;2.50;99.90
17381;DHT22;8808;52.478;13.378;2023-02-15T01:36:15;2.40;99.90
17381;DHT22;8808;52.478;13.378;2023-02-15T01:38:46;2.40;99.90
17381;DHT22;8808;52.478;13.378;2023-02-15T01:41:13;2.30;99.90
17381;DHT22;8808;52.478;13.378;2023-02-15T01:43:54;2.40;99.90
17381;DHT22;8808;52.478;13.378;2023-02-15T01:46:26;2.40;99.90
17381;DHT22;8808;52.478;13.378;2023-02-15T01:48:56;2.30;99.90
17381;DHT22;8808;52.478;13.378;2023-02-15T01:51:26;2.30;99.90
17381;DHT22;8808;52.478;13.378;2023-02-15T01:54:01;2.20;99.90
17381;DHT22;8808;52.478;13.378;2023-02-15T01:56:32;2.20;99.90
17381;DHT22;8808;52.478;13.378;2023-02-15T01:59:03;2.30;99.90
17381;DHT22;8808;52.478;13.378;2023-02-15T02:04:12;2.20;99.90
17381;DHT22;8808;52.478;13.378;2023-02-15T02:06:40;2.20;99.90
17381;DHT22;8808;52.478;13.378;2023-02-15T02:09:09;2.20;99.90
17381;DHT22;8808;52.478;13.378;2023-02-15T02:11:36;2.10;99.90
17381;DHT22;8808;52.478;13.378;2023-02-15T02:14:02;2.10;99.90
17381;DHT22;8808;52.478;13.378;2023-02-15T02:16:38;2.00;99.90
17381;DHT22;8808;52.478;13.378;2023-02-15T02:19:25;2.10;99.90
17381;DHT22;8808;52.478;13.378;2023-02-15T02:22:14;2.70;99.90
17381;DHT22;8808;52.478;13.378;2023-02-15T02:27:48;2.80;99.90
17381;DHT22;8808;52.478;13.378;2023-02-15T02:30:38;2.90;99.90
17381;DHT22;8808;52.478;13.378;2023-02-15T02:33:24;2.90;99.90
17381;DHT22;8808;52.478;13.378;2023-02-15T02:36:00;2.90;99.90
17381;DHT22;8808;52.478;13.378;2023-02-15T02:38:38;2.70;99.90
17381;DHT22;8808;52.478;13.378;2023-02-15T02:41:14;2.70;99.90
17381;DHT22;8808;52.478;13.378;2023-02-15T02:43:48;2.50;99.90
17381;DHT22;8808;52.478;13.378;2023-02-15T02:46:20;2.60;99.90
17381;DHT22;8808;52.478;13.378;2023-02-15T02:48:50;2.70;99.90
17381;DHT22;8808;52.478;13.378;2023-02-15T02:51:17;2.60;99.90
17381;DHT22;8808;52.478;13.378;2023-02-15T02:53:50;2.60;99.90
17381;DHT22;8808;52.478;13.378;2023-02-15T02:56:23;2.70;99.90
17381;DHT22;8808;52.478;13.378;2023-02-15T02:58:55;2.80;99.90
17381;DHT22;8808;52.478;13.378;2023-02-15T03:01:27;2.80;99.90
17381;DHT22;8808;52.478;13.378;2023-02-15T03:04:00;2.80;99.90
17381;DHT22;8808;52.478;13.378;2023-02-15T03:06:32;2.80;99.90
17381;DHT22;8808;52.478;13.378;2023-02-15T03:09:05;2.80;99.90
17381;DHT22;8808;52.478;13.378;2023-02-15T03:11:33;2.80;99.90
17381;DHT22;8808;52.478;13.378;2023-02-15T03:14:00;2.70;99.90
17381;DHT22;8808;52.478;13.378;2023-02-15T03:16:27;2.70;99.90
17381;DHT22;8808;52.478;13.378;2023-02-15T03:19:00;2.70;99.90
17381;DHT22;8808;52.478;13.378;2023-02-15T03:21:34;2.60;99.90
17381;DHT22;8808;52.478;13.378;2023-02-15T03:24:08;2.60;99.90
17381;DHT22;8808;52.478;13.378;2023-02-15T03:26:37;2.50;99.90
17381;DHT22;8808;52.478;13.378;2023-02-15T03:29:06;2.50;99.90
17381;DHT22;8808;52.478;13.378;2023-02-15T03:31:37;2.50;99.90
17381;DHT22;8808;52.478;13.378;2023-02-15T03:34:08;2.40;99.90
17381;DHT22;8808;52.478;13.378;2023-02-15T03:36:42;2.40;99.90
17381;DHT22;8808;52.478;13.378;2023-02-15T03:39:15;2.40;99.90
17381;DHT22;8808;52.478;13.378;2023-02-15T03:41:49;2.40;99.90
17381;DHT22;8808;52.478;13.378;2023-02-15T03:44:23;2.30;99.90
17381;DHT22;8808;52.478;13.378;2023-02-15T03:46:55;2.30;99.90
17381;DHT22;8808;52.478;13.378;2023-02-15T03:49:30;2.20;99.90
17381;DHT22;8808;52.478;13.378;2023-02-15T03:52:01;2.20;99.90
17381;DHT22;8808;52.478;13.378;2023-02-15T03:54:31;2.30;99.90
17381;DHT22;8808;52.478;13.378;2023-02-15T03:57:17;2.20;99.90
17381;DHT22;8808;52.478;13.378;2023-02-15T04:00:05;2.10;99.90
17381;DHT22;8808;52.478;13.378;2023-02-15T04:03:21;2.20;99.90
17381;DHT22;8808;52.478;13.378;2023-02-15T04:05:51;2.10;99.90
17381;DHT22;8808;52.478;13.378;2023-02-15T04:08:18;2.20;99.90
17381;DHT22;8808;52.478;13.378;2023-02-15T04:10:44;2.10;99.90
17381;DHT22;8808;52.478;13.378;2023-02-15T04:13:23;2.00;99.90
17381;DHT22;8808;52.478;13.378;2023-02-15T04:15:50;2.20;99.90
17381;DHT22;8808;52.478;13.378;2023-02-15T04:18:29;2.10;99.90
17381;DHT22;8808;52.478;13.378;2023-02-15T04:21:15;2.20;99.90
17381;DHT22;8808;52.478;13.378;2023-02-15T04:23:59;2.10;99.90
17381;DHT22;8808;52.478;13.378;2023-02-15T04:26:44;2.10;99.90
17381;DHT22;8808;52.478;13.378;2023-02-15T04:29:13;2.00;99.90
17381;DHT22;8808;52.478;13.378;2023-02-15T04:31:40;2.00;99.90
17381;DHT22;8808;52.478;13.378;2023-02-15T04:34:08;1.90;99.90
17381;DHT22;8808;52.478;13.378;2023-02-15T04:36:37;1.80;99.90
17381;DHT22;8808;52.478;13.378;2023-02-15T04:39:04;1.70;99.90
17381;DHT22;8808;52.478;13.378;2023-02-15T04:41:32;1.70;99.90
17381;DHT22;8808;52.478;13.378;2023-02-15T04:43:59;1.70;99.90
17381;DHT22;8808;52.478;13.378;2023-02-15T04:46:27;1.60;99.90
17381;DHT22;8808;52.478;13.378;2023-02-15T04:48:54;1.50;99.90
17381;DHT22;8808;52.478;13.378;2023-02-15T04:51:22;1.50;99.90
17381;DHT22;8808;52.478;13.378;2023-02-15T04:53:50;1.40;99.90
17381;DHT22;8808;52.478;13.378;2023-02-15T04:56:18;1.40;99.90
17381;DHT22;8808;52.478;13.378;2023-02-15T04:58:45;1.40;99.90
17381;DHT22;8808;52.478;13.378;2023-02-15T05:01:12;1.40;99.90
17381;DHT22;8808;52.478;13.378;2023-02-15T05:03:39;1.30;99.90
17381;DHT22;8808;52.478;13.378;2023-02-15T05:06:06;1.30;99.90
17381;DHT22;8808;52.478;13.378;2023-02-15T05:08:33;1.20;99.90
17381;DHT22;8808;52.478;13.378;2023-02-15T05:11:01;1.40;99.90
17381;DHT22;8808;52.478;13.378;2023-02-15T05:13:28;1.30;99.90
17381;DHT22;8808;52.478;13.378;2023-02-15T05:15:55;1.20;99.90
17381;DHT22;8808;52.478;13.378;2023-02-15T05:18:22;1.20;99.90
17381;DHT22;8808;52.478;13.378;2023-02-15T05:20:49;1.10;99.90
17381;DHT22;8808;52.478;13.378;2023-02-15T05:23:16;1.00;99.90
17381;DHT22;8808;52.478;13.378;2023-02-15T05:25:46;1.00;99.90
17381;DHT22;8808;52.478;13.378;2023-02-15T05:28:33;1.00;99.90
17381;DHT22;8808;52.478;13.378;2023-02-15T05:31:05;1.00;99.90
17381;DHT22;8808;52.478;13.378;2023-02-15T05:33:33;0.90;99.90
17381;DHT22;8808;52.478;13.378;2023-02-15T05:36:00;1.00;99.90
17381;DHT22;8808;52.478;13.378;2023-02-15T05:38:27;1.00;99.90
17381;DHT22;8808;52.478;13.378;2023-02-15T05:40:54;1.00;99.90
17381;DHT22;8808;52.478;13.378;2023-02-15T05:43:22;1.00;99.90
17381;DHT22;8808;52.478;13.378;2023-02-15T05:45:52;1.10;99.90
17381;DHT22;8808;52.478;13.378;2023-02-15T05:48:22;1.00;99.90
17381;DHT22;8808;52.478;13.378;2023-02-15T05:50:57;0.90;99.90
17381;DHT22;8808;52.478;13.378;2023-02-15T05:53:24;1.00;99.90
17381;DHT22;8808;52.478;13.378;2023-02-15T05:55:51;0.90;99.90
17381;DHT22;8808;52.478;13.378;2023-02-15T05:58:19;1.00;99.90
17381;DHT22;8808;52.478;13.378;2023-02-15T06:00:46;0.90;99.90
17381;DHT22;8808;52.478;13.378;2023-02-15T06:03:14;0.90;99.90
17381;DHT22;8808;52.478;13.378;2023-02-15T06:05:42;0.80;99.90
17381;DHT22;8808;52.478;13.378;2023-02-15T06:08:09;0.90;99.90
17381;DHT22;8808;52.478;13.378;2023-02-15T06:10:36;0.90;99.90
17381;DHT22;8808;52.478;13.378;2023-02-15T06:13:03;0.90;99.90
17381;DHT22;8808;52.478;13.378;2023-02-15T06:15:30;0.80;99.90
17381;DHT22;8808;52.478;13.378;2023-02-15T06:17:57;0.70;99.90
17381;DHT22;8808;52.478;13.378;2023-02-15T06:20:25;0.80;99.90
17381;DHT22;8808;52.478;13.378;2023-02-15T06:22:52;0.70;99.90
17381;DHT22;8808;52.478;13.378;2023-02-15T06:25:19;0.80;99.90
17381;DHT22;8808;52.478;13.378;2023-02-15T06:27:46;0.70;99.90
17381;DHT22;8808;52.478;13.378;2023-02-15T06:30:13;0.70;99.90
17381;DHT22;8808;52.478;13.378;2023-02-15T06:32:40;0.70;99.90
17381;DHT22;8808;52.478;13.378;2023-02-15T06:35:07;0.60;99.90
17381;DHT22;8808;52.478;13.378;2023-02-15T06:37:36;0.60;99.90
17381;DHT22;8808;52.478;13.378;2023-02-15T06:40:03;0.60;99.90
17381;DHT22;8808;52.478;13.378;2023-02-15T06:42:30;0.60;99.90
17381;DHT22;8808;52.478;13.378;2023-02-15T06:44:57;0.60;99.90
17381;DHT22;8808;52.478;13.378;2023-02-15T06:47:25;0.80;99.90
17381;DHT22;8808;52.478;13.378;2023-02-15T06:49:52;0.80;99.90
17381;DHT22;8808;52.478;13.378;2023-02-15T06:52:19;0.80;99.90
17381;DHT22;8808;52.478;13.378;2023-02-15T06:54:47;0.80;99.90
17381;DHT22;8808;52.478;13.378;2023-02-15T06:57:14;0.70;99.90
17381;DHT22;8808;52.478;13.378;2023-02-15T06:59:41;0.80;99.90
17381;DHT22;8808;52.478;13.378;2023-02-15T07:02:09;0.70;99.90
17381;DHT22;8808;52.478;13.378;2023-02-15T07:04:37;0.70;99.90
17381;DHT22;8808;52.478;13.378;2023-02-15T07:07:08;0.60;99.90
17381;DHT22;8808;52.478;13.378;2023-02-15T07:09:35;0.60;99.90
17381;DHT22;8808;52.478;13.378;2023-02-15T07:12:04;0.70;99.90
17381;DHT22;8808;52.478;13.378;2023-02-15T07:14:48;0.50;99.90
17381;DHT22;8808;52.478;13.378;2023-02-15T07:17:15;0.40;99.90
17381;DHT22;8808;52.478;13.378;2023-02-15T07:19:43;0.30;99.90
17381;DHT22;8808;52.478;13.378;2023-02-15T07:22:10;0.50;99.90
17381;DHT22;8808;52.478;13.378;2023-02-15T07:24:37;0.70;99.90
17381;DHT22;8808;52.478;13.378;2023-02-15T07:27:06;0.60;99.90
17381;DHT22;8808;52.478;13.378;2023-02-15T07:29:33;0.60;99.90
17381;DHT22;8808;52.478;13.378;2023-02-15T07:32:00;0.60;99.90
17381;DHT22;8808;52.478;13.378;2023-02-15T07:34:27;0.50;99.90
17381;DHT22;8808;52.478;13.378;2023-02-15T07:36:54;0.50;99.90
17381;DHT22;8808;52.478;13.378;2023-02-15T07:39:21;0.60;99.90
17381;DHT22;8808;52.478;13.378;2023-02-15T07:41:48;0.50;99.90
17381;DHT22;8808;52.478;13.378;2023-02-15T07:44:16;0.40;99.90
17381;DHT22;8808;52.478;13.378;2023-02-15T07:46:43;0.60;99.90
17381;DHT22;8808;52.478;13.378;2023-02-15T07:49:10;0.70;99.90
17381;DHT22;8808;52.478;13.378;2023-02-15T07:51:37;0.70;99.90
17381;DHT22;8808;52.478;13.378;2023-02-15T07:54:06;0.60;99.90
17381;DHT22;8808;52.478;13.378;2023-02-15T07:56:33;0.70;99.90
17381;DHT22;8808;52.478;13.378;2023-02-15T07:59:00;0.70;99.90
17381;DHT22;8808;52.478;13.378;2023-02-15T08:01:32;0.70;99.90
17381;DHT22;8808;52.478;13.378;2023-02-15T08:03:59;0.90;99.90
17381;DHT22;8808;52.478;13.378;2023-02-15T08:06:28;1.00;99.90
17381;DHT22;8808;52.478;13.378;2023-02-15T08:08:55;1.10;99.90
17381;DHT22;8808;52.478;13.378;2023-02-15T08:11:23;1.00;99.90
17381;DHT22;8808;52.478;13.378;2023-02-15T08:14:00;0.90;99.90
17381;DHT22;8808;52.478;13.378;2023-02-15T08:16:32;1.10;99.90
17381;DHT22;8808;52.478;13.378;2023-02-15T08:19:02;1.30;99.90
17381;DHT22;8808;52.478;13.378;2023-02-15T08:21:30;1.30;99.90
17381;DHT22;8808;52.478;13.378;2023-02-15T08:23:58;1.20;99.90
17381;DHT22;8808;52.478;13.378;2023-02-15T08:26:26;1.30;99.90
17381;DHT22;8808;52.478;13.378;2023-02-15T08:28:53;1.30;99.90
17381;DHT22;8808;52.478;13.378;2023-02-15T08:31:21;1.10;99.90
17381;DHT22;8808;52.478;13.378;2023-02-15T08:33:51;1.20;99.90
17381;DHT22;8808;52.478;13.378;2023-02-15T08:36:20;1.10;99.90
17381;DHT22;8808;52.478;13.378;2023-02-15T08:38:48;1.10;99.90
17381;DHT22;8808;52.478;13.378;2023-02-15T08:41:17;1.30;99.90
17381;DHT22;8808;52.478;13.378;2023-02-15T08:43:45;1.10;99.90
17381;DHT22;8808;52.478;13.378;2023-02-15T08:46:14;1.10;99.90
17381;DHT22;8808;52.478;13.378;2023-02-15T08:48:42;1.10;99.90
17381;DHT22;8808;52.478;13.378;2023-02-15T08:51:13;1.20;99.90
17381;DHT22;8808;52.478;13.378;2023-02-15T08:53:41;1.30;99.90
17381;DHT22;8808;52.478;13.378;2023-02-15T08:56:09;1.30;99.90
17381;DHT22;8808;52.478;13.378;2023-02-15T08:58:37;1.50;99.90
17381;DHT22;8808;52.478;13.378;2023-02-15T09:01:11;1.60;99.90
17381;DHT22;8808;52.478;13.378;2023-02-15T09:03:39;1.60;99.90
17381;DHT22;8808;52.478;13.378;2023-02-15T09:06:06;1.70;99.90
17381;DHT22;8808;52.478;13.378;2023-02-15T09:08:34;1.50;99.90
17381;DHT22;8808;52.478;13.378;2023-02-15T09:11:07;2.10;99.90
17381;DHT22;8808;52.478;13.378;2023-02-15T09:13:34;1.50;99.90
17381;DHT22;8808;52.478;13.378;2023-02-15T09:16:02;1.60;99.90
17381;DHT22;8808;52.478;13.378;2023-02-15T09:18:30;1.70;99.90
17381;DHT22;8808;52.478;13.378;2023-02-15T09:21:04;1.70;99.90
17381;DHT22;8808;52.478;13.378;2023-02-15T09:23:32;1.60;99.90
17381;DHT22;8808;52.478;13.378;2023-02-15T09:26:04;1.80;99.90
17381;DHT22;8808;52.478;13.378;2023-02-15T09:28:31;1.90;99.90
17381;DHT22;8808;52.478;13.378;2023-02-15T09:31:05;1.80;99.90
17381;DHT22;8808;52.478;13.378;2023-02-15T09:33:33;1.80;99.90
17381;DHT22;8808;52.478;13.378;2023-02-15T09:36:00;2.00;99.90
17381;DHT22;8808;52.478;13.378;2023-02-15T09:38:27;2.00;99.90
17381;DHT22;8808;52.478;13.378;2023-02-15T09:41:09;1.90;99.90
17381;DHT22;8808;52.478;13.378;2023-02-15T09:43:53;2.10;99.90
17381;DHT22;8808;52.478;13.378;2023-02-15T09:46:37;2.30;99.90
17381;DHT22;8808;52.478;13.378;2023-02-15T09:49:13;2.40;99.90
17381;DHT22;8808;52.478;13.378;2023-02-15T09:51:57;2.50;99.90
17381;DHT22;8808;52.478;13.378;2023-02-15T09:54:52;2.70;99.90
17381;DHT22;8808;52.478;13.378;2023-02-15T09:57:26;2.70;99.90
17381;DHT22;8808;52.478;13.378;2023-02-15T10:00:02;2.60;99.90
17381;DHT22;8808;52.478;13.378;2023-02-15T10:02:45;2.60;99.90
17381;DHT22;8808;52.478;13.378;2023-02-15T10:05:24;2.80;99.90
17381;DHT22;8808;52.478;13.378;2023-02-15T10:08:30;2.80;99.90
17381;DHT22;8808;52.478;13.378;2023-02-15T10:11:03;2.90;99.90
17381;DHT22;8808;52.478;13.378;2023-02-15T10:13:55;3.00;99.90
17381;DHT22;8808;52.478;13.378;2023-02-15T10:16:31;3.20;99.90
17381;DHT22;8808;52.478;13.378;2023-02-15T10:19:07;3.20;99.90
17381;DHT22;8808;52.478;13.378;2023-02-15T10:21:47;3.40;99.90
17381;DHT22;8808;52.478;13.378;2023-02-15T10:24:36;3.30;99.90
17381;DHT22;8808;52.478;13.378;2023-02-15T10:27:10;3.20;99.90
17381;DHT22;8808;52.478;13.378;2023-02-15T10:29:45;3.50;99.90
17381;DHT22;8808;52.478;13.378;2023-02-15T10:32:22;3.50;99.90
17381;DHT22;8808;52.478;13.378;2023-02-15T10:34:51;3.80;99.90
17381;DHT22;8808;52.478;13.378;2023-02-15T10:37:39;3.50;99.90
17381;DHT22;8808;52.478;13.378;2023-02-15T10:40:17;3.70;99.90
17381;DHT22;8808;52.478;13.378;2023-02-15T10:42:56;4.10;99.90
17381;DHT22;8808;52.478;13.378;2023-02-15T10:45:34;4.10;99.90
17381;DHT22;8808;52.478;13.378;2023-02-15T10:48:25;4.30;99.90
17381;DHT22;8808;52.478;13.378;2023-02-15T10:50:57;4.10;99.90
17381;DHT22;8808;52.478;13.378;2023-02-15T10:53:49;4.30;99.90
17381;DHT22;8808;52.478;13.378;2023-02-15T10:56:24;4.50;99.90
17381;DHT22;8808;52.478;13.378;2023-02-15T10:59:08;4.60;99.90
17381;DHT22;8808;52.478;13.378;2023-02-15T11:01:41;4.60;99.90
17381;DHT22;8808;52.478;13.378;2023-02-15T11:04:39;4.70;99.90
17381;DHT22;8808;52.478;13.378;2023-02-15T11:07:15;4.70;99.90
17381;DHT22;8808;52.478;13.378;2023-02-15T11:09:46;4.90;99.90
17381;DHT22;8808;52.478;13.378;2023-02-15T11:12:17;4.70;99.90
17381;DHT22;8808;52.478;13.378;2023-02-15T11:14:50;4.60;99.90
17381;DHT22;8808;52.478;13.378;2023-02-15T11:17:23;4.50;99.90
17381;DHT22;8808;52.478;13.378;2023-02-15T11:19:56;4.70;99.90
17381;DHT22;8808;52.478;13.378;2023-02-15T11:22:26;5.20;99.90
17381;DHT22;8808;52.478;13.378;2023-02-15T11:24:54;5.20;99.90
17381;DHT22;8808;52.478;13.378;2023-02-15T11:27:25;6.10;99.90
17381;DHT22;8808;52.478;13.378;2023-02-15T11:29:57;5.90;99.90
17381;DHT22;8808;52.478;13.378;2023-02-15T11:32:30;6.30;99.90
17381;DHT22;8808;52.478;13.378;2023-02-15T11:35:01;6.60;99.90
17381;DHT22;8808;52.478;13.378;2023-02-15T11:37:34;6.50;99.90
17381;DHT22;8808;52.478;13.378;2023-02-15T11:40:03;6.80;99.90
17381;DHT22;8808;52.478;13.378;2023-02-15T11:42:39;6.90;99.90
17381;DHT22;8808;52.478;13.378;2023-02-15T11:45:18;6.90;99.90
17381;DHT22;8808;52.478;13.378;2023-02-15T11:47:48;7.10;99.90
17381;DHT22;8808;52.478;13.378;2023-02-15T11:50:17;6.90;99.90
17381;DHT22;8808;52.478;13.378;2023-02-15T11:52:48;7.10;99.90
17381;DHT22;8808;52.478;13.378;2023-02-15T11:55:19;7.00;99.90
17381;DHT22;8808;52.478;13.378;2023-02-15T11:57:51;7.40;99.90
17381;DHT22;8808;52.478;13.378;2023-02-15T12:00:27;7.30;99.90
17381;DHT22;8808;52.478;13.378;2023-02-15T12:03:07;7.20;99.90
17381;DHT22;8808;52.478;13.378;2023-02-15T12:05:37;7.20;99.90
17381;DHT22;8808;52.478;13.378;2023-02-15T12:08:15;7.60;99.90
17381;DHT22;8808;52.478;13.378;2023-02-15T12:10:49;7.50;99.90
17381;DHT22;8808;52.478;13.378;2023-02-15T12:13:20;7.50;99.90
17381;DHT22;8808;52.478;13.378;2023-02-15T12:15:48;7.40;99.90
17381;DHT22;8808;52.478;13.378;2023-02-15T12:18:34;7.70;99.90
17381;DHT22;8808;52.478;13.378;2023-02-15T12:21:05;7.80;99.90
17381;DHT22;8808;52.478;13.378;2023-02-15T12:23:33;7.80;99.90
17381;DHT22;8808;52.478;13.378;2023-02-15T12:26:06;7.70;99.90
17381;DHT22;8808;52.478;13.378;2023-02-15T12:28:34;7.60;99.90
17381;DHT22;8808;52.478;13.378;2023-02-15T12:31:06;7.80;99.90
17381;DHT22;8808;52.478;13.378;2023-02-15T12:33:39;7.90;99.90
17381;DHT22;8808;52.478;13.378;2023-02-15T12:36:17;8.00;99.90
17381;DHT22;8808;52.478;13.378;2023-02-15T12:39:03;8.20;99.90
17381;DHT22;8808;52.478;13.378;2023-02-15T12:41:30;8.20;99.90
17381;DHT22;8808;52.478;13.378;2023-02-15T12:44:05;8.40;99.90
17381;DHT22;8808;52.478;13.378;2023-02-15T12:46:32;8.70;99.90
17381;DHT22;8808;52.478;13.378;2023-02-15T12:49:17;8.60;99.90
17381;DHT22;8808;52.478;13.378;2023-02-15T12:51:47;8.50;99.90
17381;DHT22;8808;52.478;13.378;2023-02-15T12:54:25;8.60;99.90
17381;DHT22;8808;52.478;13.378;2023-02-15T12:56:55;8.90;99.90
17381;DHT22;8808;52.478;13.378;2023-02-15T12:59:23;8.80;99.90
17381;DHT22;8808;52.478;13.378;2023-02-15T13:01:51;8.80;99.90
17381;DHT22;8808;52.478;13.378;2023-02-15T13:04:24;8.90;99.90
17381;DHT22;8808;52.478;13.378;2023-02-15T13:06:53;9.00;99.90
17381;DHT22;8808;52.478;13.378;2023-02-15T13:09:35;9.10;99.90
17381;DHT22;8808;52.478;13.378;2023-02-15T13:12:15;9.30;99.90
17381;DHT22;8808;52.478;13.378;2023-02-15T13:14:45;9.20;99.90
17381;DHT22;8808;52.478;13.378;2023-02-15T13:17:15;9.20;99.90
17381;DHT22;8808;52.478;13.378;2023-02-15T13:19:47;9.40;99.90
17381;DHT22;8808;52.478;13.378;2023-02-15T13:22:18;9.40;99.90
17381;DHT22;8808;52.478;13.378;2023-02-15T13:24:48;9.50;99.90
17381;DHT22;8808;52.478;13.378;2023-02-15T13:27:17;9.20;99.90
17381;DHT22;8808;52.478;13.378;2023-02-15T13:29:48;9.10;99.90
17381;DHT22;8808;52.478;13.378;2023-02-15T13:32:25;9.00;99.90
17381;DHT22;8808;52.478;13.378;2023-02-15T13:34:57;9.10;99.90
17381;DHT22;8808;52.478;13.378;2023-02-15T13:37:49;9.20;99.90
17381;DHT22;8808;52.478;13.378;2023-02-15T13:40:23;9.20;99.90
17381;DHT22;8808;52.478;13.378;2023-02-15T13:42:55;9.30;99.90
17381;DHT22;8808;52.478;13.378;2023-02-15T13:45:34;9.50;99.90
17381;DHT22;8808;52.478;13.378;2023-02-15T13:48:13;9.60;99.90
17381;DHT22;8808;52.478;13.378;2023-02-15T13:51:01;9.60;99.90
17381;DHT22;8808;52.478;13.378;2023-02-15T13:53:40;9.60;99.90
17381;DHT22;8808;52.478;13.378;2023-02-15T13:56:16;9.50;99.90
17381;DHT22;8808;52.478;13.378;2023-02-15T14:01:50;9.60;99.90
17381;DHT22;8808;52.478;13.378;2023-02-15T14:04:42;9.70;99.90
17381;DHT22;8808;52.478;13.378;2023-02-15T14:07:29;9.70;99.90
17381;DHT22;8808;52.478;13.378;2023-02-15T14:10:18;9.60;99.90
17381;DHT22;8808;52.478;13.378;2023-02-15T14:13:02;9.70;99.90
17381;DHT22;8808;52.478;13.378;2023-02-15T14:15:36;9.70;99.90
17381;DHT22;8808;52.478;13.378;2023-02-15T14:18:15;9.60;99.90
17381;DHT22;8808;52.478;13.378;2023-02-15T14:20:51;9.70;99.90
17381;DHT22;8808;52.478;13.378;2023-02-15T14:23:32;9.80;99.90
17381;DHT22;8808;52.478;13.378;2023-02-15T14:26:03;10.00;99.90
17381;DHT22;8808;52.478;13.378;2023-02-15T14:28:37;10.10;99.90
17381;DHT22;8808;52.478;13.378;2023-02-15T14:31:10;10.10;99.90
17381;DHT22;8808;52.478;13.378;2023-02-15T14:33:38;10.30;99.90
17381;DHT22;8808;52.478;13.378;2023-02-15T14:36:13;10.40;99.90
17381;DHT22;8808;52.478;13.378;2023-02-15T14:39:03;10.30;99.90
17381;DHT22;8808;52.478;13.378;2023-02-15T14:41:57;10.20;99.90
17381;DHT22;8808;52.478;13.378;2023-02-15T14:44:31;10.00;99.90
17381;DHT22;8808;52.478;13.378;2023-02-15T14:47:05;10.00;99.90
17381;DHT22;8808;52.478;13.378;2023-02-15T14:49:38;10.10;99.90
17381;DHT22;8808;52.478;13.378;2023-02-15T14:52:06;10.10;99.90
17381;DHT22;8808;52.478;13.378;2023-02-15T14:54:58;10.10;99.90
17381;DHT22;8808;52.478;13.378;2023-02-15T14:57:35;10.20;99.90
17381;DHT22;8808;52.478;13.378;2023-02-15T15:00:39;10.30;99.90
17381;DHT22;8808;52.478;13.378;2023-02-15T15:03:21;10.10;99.90
17381;DHT22;8808;52.478;13.378;2023-02-15T15:05:52;10.10;99.90
17381;DHT22;8808;52.478;13.378;2023-02-15T15:08:28;10.20;99.90
17381;DHT22;8808;52.478;13.378;2023-02-15T15:11:39;10.30;99.90
17381;DHT22;8808;52.478;13.378;2023-02-15T15:14:08;10.20;99.90
17381;DHT22;8808;52.478;13.378;2023-02-15T15:16:50;10.30;99.90
17381;DHT22;8808;52.478;13.378;2023-02-15T15:22:34;10.20;99.90
17381;DHT22;8808;52.478;13.378;2023-02-15T15:25:02;10.20;99.90
17381;DHT22;8808;52.478;13.378;2023-02-15T15:27:46;10.20;99.90
17381;DHT22;8808;52.478;13.378;2023-02-15T15:30:47;10.00;99.90
17381;DHT22;8808;52.478;13.378;2023-02-15T15:33:40;10.00;99.90
17381;DHT22;8808;52.478;13.378;2023-02-15T15:36:37;9.80;99.90
17381;DHT22;8808;52.478;13.378;2023-02-15T15:39:22;9.80;99.90
17381;DHT22;8808;52.478;13.378;2023-02-15T15:42:01;9.80;99.90
17381;DHT22;8808;52.478;13.378;2023-02-15T15:45:14;9.70;99.90
17381;DHT22;8808;52.478;13.378;2023-02-15T15:48:12;9.70;99.90
17381;DHT22;8808;52.478;13.378;2023-02-15T15:50:43;9.70;99.90
17381;DHT22;8808;52.478;13.378;2023-02-15T15:53:16;9.50;99.90
17381;DHT22;8808;52.478;13.378;2023-02-15T15:55:46;9.30;99.90
17381;DHT22;8808;52.478;13.378;2023-02-15T15:58:17;9.30;99.90
17381;DHT22;8808;52.478;13.378;2023-02-15T16:00:47;9.10;99.90
17381;DHT22;8808;52.478;13.378;2023-02-15T16:03:21;8.90;99.90
17381;DHT22;8808;52.478;13.378;2023-02-15T16:05:48;9.00;99.90
17381;DHT22;8808;52.478;13.378;2023-02-15T16:08:26;8.90;99.90
17381;DHT22;8808;52.478;13.378;2023-02-15T16:10:54;9.00;99.90
17381;DHT22;8808;52.478;13.378;2023-02-15T16:13:21;8.80;99.90
17381;DHT22;8808;52.478;13.378;2023-02-15T16:15:50;8.60;99.90
17381;DHT22;8808;52.478;13.378;2023-02-15T16:18:21;8.40;99.90
17381;DHT22;8808;52.478;13.378;2023-02-15T16:20:51;8.30;99.90
17381;DHT22;8808;52.478;13.378;2023-02-15T16:23:32;8.30;99.90
17381;DHT22;8808;52.478;13.378;2023-02-15T16:26:09;8.10;99.90
17381;DHT22;8808;52.478;13.378;2023-02-15T16:28:39;8.10;99.90
17381;DHT22;8808;52.478;13.378;2023-02-15T16:31:12;8.10;99.90